AirNav   Everest Fuels
 
 688 users online  

L53 Lodi Airpark
Lodi, California, USA

GOING TO LODI?


FAA INFORMATION EFFECTIVE 02 JANUARY 2020

Location

FAA Identifier: L53
Lat/Long: 38-05-02.7130N 121-18-58.8130W
38-05.045217N 121-18.980217W
38.0840869,-121.3163369
(estimated)
Elevation: 25 ft. / 8 m (estimated)
Variation: 16E (1985)
From city: 3 miles SW of LODI, CA
Time zone: UTC -8 (UTC -7 during Daylight Saving Time)
Zip code: 95242

Airport Operations

Airport use: Open to the public
Activation date: 02/1946
Control tower: no
ARTCC: OAKLAND CENTER
FSS: RANCHO MURIETA FLIGHT SERVICE STATION
NOTAMs facility: RIU (NOTAM-D service available)
Attendance: JAN-SEP 0800-1700, OCT-DEC MON-FRI 0800-1200
Pattern altitude: 825 ft. MSL
Wind indicator: yes
Segmented circle: no

Airport Communications

CTAF: 122.9
WX ASOS at SCK (12 nm S): PHONE 209-982-4270
WX AWOS-AV at O88 (19 nm W): 127.075 (707-374-5396)

Nearby radio navigation aids

VOR radial/distance  VOR name  Freq  Var
LINr255/14.8LINDEN VOR/DME114.8017E
SACr136/24.3SACRAMENTO VORTAC115.2017E
MODr311/32.2MODESTO VOR/DME114.6017E
CCRr069/34.5CONCORD VOR/DME117.0017E
MCCr156/35.2MC CLELLAN VOR/DME109.2017E

Airport Services

Airframe service: NONE
Powerplant service: NONE
Bottled oxygen: NONE
Bulk oxygen: NONE

Runway Information

Runway 7/25

Dimensions: 1875 x 22 ft. / 572 x 7 m
RWY 25 FST 1200 FT IS 36 FT WID, RMNDR IS 22 FT WID.
Surface: asphalt, in fair condition
RUNWAY 7  RUNWAY 25
Traffic pattern: leftleft
Markings: basic, in fair conditionbasic, in fair condition
Runway end identifier lights: nono
Obstructions: 12 ft. road, 981 ft. from runway3 ft. brush, 380 ft. from runway

Airport Ownership and Management from official FAA records

Ownership: Privately-owned
Owner: FREDONYER LAND CO INC
11919 N LOWER SACRAMENTO RD
LODI, CA 95242
Phone 209-369-4408
Manager: PETER PRECISSI
11919 N LOWER SACRAMENTO RD
LODI, CA 95242
Phone (209) 327-3311

Airport Operational Statistics

Aircraft based on the field: 5
Single engine airplanes: 5
    
Aircraft operations: avg 100/week *
96% local general aviation
4% transient general aviation
* for 12-month period ending 24 October 2019

Additional Remarks

380 FT APRON EXTENDS EAST FM END OF RY 25.
FOR CD CTC NORCAL APCH AT 916-361-0516.

Instrument Procedures

There are no published instrument procedures at L53.

Some nearby airports with instrument procedures:

1O3 - Lodi Airport (7 nm N)
KSCK - Stockton Metropolitan Airport (12 nm S)
O88 - Rio Vista Municipal Airport (19 nm W)
C83 - Byron Airport (21 nm SW)
KTCY - Tracy Municipal Airport (24 nm S)
 
Loc | Ops | Rwys | IFR | FBO | Links
Com | Nav | Svcs | Stats | Notes
Area around L53 (Lodi Airpark)
 
Road maps at: MapQuest Bing Google
 
Aerial photo
WARNING: Photo may not be current or correct
Aerial photo of L53 (Lodi Airpark)
Do you have a better or more recent aerial photo of Lodi Airpark that you would like to share? If so, please send us your photo.

 
Sectional chart

 
Airport distance calculator
Flying to Lodi Airpark? Find the distance to fly.

From to L53

Sunrise and sunset
Times for 20-Jan-2020
 Local
(UTC-8)
 Zulu
(UTC)
Morning civil twilight06:5114:51
Sunrise07:1915:19
Sunset17:1401:14
Evening civil twilight17:4201:42

Current date and time
Zulu (UTC)  20-Jan-2020 12:54:56
Local (UTC-8)  20-Jan-2020 04:54:56
 
METAR
KSCK 
13nm S 
201229Z AUTO 05004KT 2 1/2SM BR OVC004 07/05 A3002 RMK AO2 T00670050
KC83 
21nm SW 
201235Z AUTO 30003KT 2SM BR OVC005 06/06 A3003 RMK AO2
KTCY 
24nm S 
201235Z AUTO 00000KT 3SM BR OVC003 06/06 A3003 RMK A01
TAF
KSCK 
13nm S 
201134Z 2012/2112 VRB03KT 3SM BR OVC005 FM201300 VRB03KT 1SM BR OVC004 TEMPO 2014/2018 1/4SM FG OVC001 FM202000 VRB03KT 4SM BR SCT008 OVC100 FM210000 VRB03KT P6SM SCT100 BKN250
NOTAMs
Click for the latest NOTAMs
NOTAMs are issued by the DoD/FAA and will open in a separate window not controlled by AirNav.

 

 
 

Would you like to see your business listed on this page?

 If your business provides an interesting product or service to pilots, flight crews, aircraft, or users of the Lodi Airpark, you should consider listing it here.  To start the listing process, click on the button below
 
Add a business
 

Other Pages about Lodi Airpark

Update a link
 
Copyright © AirNav, LLC. All rights reserved. Privacy Policy  Contact